createdAt,value
2018-04-24T00:01:48.535Z,7.40
2018-04-24T00:04:16.194Z,7.53
2018-04-24T00:06:57.386Z,10.13
2018-04-24T00:09:25.085Z,8.20
2018-04-24T00:11:53.771Z,7.10
2018-04-24T00:14:21.530Z,6.73
2018-04-24T00:16:53.989Z,6.03
2018-04-24T00:19:22.808Z,6.57
2018-04-24T00:21:51.672Z,6.23
2018-04-24T00:24:20.168Z,5.80
2018-04-24T00:26:59.245Z,5.60
2018-04-24T00:29:27.333Z,6.40
2018-04-24T00:32:09.366Z,4.83
2018-04-24T00:34:37.078Z,8.43
2018-04-24T00:37:13.708Z,9.07
2018-04-24T00:39:42.185Z,5.27
2018-04-24T00:42:14.763Z,8.53
2018-04-24T00:44:42.516Z,5.90
2018-04-24T00:47:17.905Z,7.67
2018-04-24T00:49:45.633Z,5.50
2018-04-24T00:52:15.331Z,6.03
2018-04-24T00:54:43.455Z,7.90
2018-04-24T00:57:21.697Z,8.33
2018-04-24T00:59:49.388Z,6.23
2018-04-24T01:02:17.523Z,6.67
2018-04-24T01:04:45.977Z,7.63
2018-04-24T01:07:13.729Z,8.73
2018-04-24T01:09:41.460Z,6.20
2018-04-24T01:12:11.507Z,8.63
2018-04-24T01:14:39.268Z,5.53
2018-04-24T01:17:09.242Z,8.33
2018-04-24T01:19:37.697Z,8.00
2018-04-24T01:22:18.108Z,6.93
2018-04-24T01:24:45.840Z,5.93
2018-04-24T01:27:30.526Z,8.13
2018-04-24T01:29:59.035Z,8.47
2018-04-24T01:32:28.664Z,10.10
2018-04-24T01:34:56.353Z,12.27
2018-04-24T01:37:32.185Z,7.67
2018-04-24T01:39:59.992Z,7.77
2018-04-24T01:42:28.595Z,13.70
2018-04-24T01:44:56.357Z,8.73
2018-04-24T01:47:24.460Z,10.67
2018-04-24T01:49:52.177Z,7.23
2018-04-24T01:52:26.439Z,13.00
2018-04-24T01:54:54.135Z,8.00
2018-04-24T01:57:34.173Z,10.03
2018-04-24T02:00:01.827Z,9.50
2018-04-24T02:02:30.659Z,9.50
2018-04-24T02:04:59.119Z,7.47
2018-04-24T02:07:28.543Z,10.73
2018-04-24T02:09:56.236Z,9.17
2018-04-24T02:12:24.376Z,10.93
2018-04-24T02:14:52.480Z,11.70
2018-04-24T02:17:20.185Z,9.33
2018-04-24T02:19:48.213Z,9.90
2018-04-24T02:22:16.992Z,9.87
2018-04-24T02:24:45.486Z,8.13
2018-04-24T02:27:18.023Z,15.80
2018-04-24T02:29:46.151Z,9.77
2018-04-24T02:32:15.291Z,7.23
2018-04-24T02:34:43.430Z,8.87
2018-04-24T02:37:12.101Z,7.93
2018-04-24T02:39:40.345Z,9.93
2018-04-24T02:42:12.939Z,9.60
2018-04-24T02:44:41.573Z,7.53
2018-04-24T02:47:23.149Z,10.43
2018-04-24T02:49:52.383Z,9.33
2018-04-24T02:52:20.125Z,11.10
2018-04-24T02:54:48.570Z,9.50
2018-04-24T02:57:17.237Z,9.70
2018-04-24T02:59:45.282Z,10.67
2018-04-24T03:02:32.055Z,7.67
2018-04-24T03:05:00.174Z,9.37
2018-04-24T03:07:34.031Z,11.40
2018-04-24T03:10:01.664Z,12.50
2018-04-24T03:12:39.826Z,10.43
2018-04-24T03:15:07.558Z,12.33
2018-04-24T03:17:36.676Z,10.70
2018-04-24T03:20:05.085Z,12.00
2018-04-24T03:22:38.551Z,9.50
2018-04-24T03:25:07.016Z,9.83
2018-04-24T03:27:40.200Z,17.03
2018-04-24T03:30:07.868Z,13.77
2018-04-24T03:32:37.041Z,13.17
2018-04-24T03:35:04.780Z,13.73
2018-04-24T03:37:32.559Z,20.20
2018-04-24T03:40:00.666Z,12.63
2018-04-24T03:42:41.793Z,12.67
2018-04-24T03:45:10.907Z,16.73
2018-04-24T03:47:40.661Z,18.17
2018-04-24T03:50:09.134Z,18.43
2018-04-24T03:52:37.638Z,14.43
2018-04-24T03:55:05.744Z,16.87
2018-04-24T03:57:45.770Z,15.47
2018-04-24T04:00:14.625Z,19.90
2018-04-24T04:02:52.626Z,17.60
2018-04-24T04:05:20.350Z,16.57
2018-04-24T04:07:49.069Z,16.47
2018-04-24T04:10:17.704Z,16.03
2018-04-24T04:12:53.998Z,14.33
2018-04-24T04:15:22.102Z,15.83
2018-04-24T04:18:05.903Z,17.10
2018-04-24T04:20:49.775Z,13.73
2018-04-24T04:23:40.557Z,16.17
2018-04-24T04:26:08.309Z,17.30
2018-04-24T04:28:44.084Z,12.80
2018-04-24T04:31:11.812Z,11.93
2018-04-24T04:33:54.656Z,13.87
2018-04-24T04:36:22.841Z,11.70
2018-04-24T04:38:52.379Z,11.37
2018-04-24T04:41:20.526Z,13.27
2018-04-24T04:44:03.625Z,13.30
2018-04-24T04:46:32.086Z,9.03
2018-04-24T04:49:20.093Z,10.20
2018-04-24T04:51:48.503Z,14.90
2018-04-24T04:54:29.729Z,10.80
2018-04-24T04:56:58.229Z,12.43
2018-04-24T04:59:26.325Z,17.37
2018-04-24T05:01:54.064Z,12.13
2018-04-24T05:04:28.209Z,11.00
2018-04-24T05:06:57.108Z,12.23
2018-04-24T05:09:26.290Z,10.10
2018-04-24T05:11:53.943Z,11.90
2018-04-24T05:14:26.104Z,13.17
2018-04-24T05:16:54.150Z,7.20
2018-04-24T05:19:33.334Z,7.67
2018-04-24T05:22:01.025Z,7.90
2018-04-24T05:30:19.838Z,8.43
2018-04-24T05:32:48.281Z,9.43
2018-04-24T05:35:22.292Z,10.20
2018-04-24T05:37:50.867Z,8.90
2018-04-24T05:40:19.761Z,12.27
2018-04-24T05:42:48.170Z,9.40
2018-04-24T05:45:27.875Z,11.20
2018-04-24T05:47:56.759Z,8.80
2018-04-24T05:50:25.826Z,11.17
2018-04-24T05:52:53.959Z,7.30
2018-04-24T05:55:23.700Z,9.50
2018-04-24T05:57:52.202Z,9.17
2018-04-24T06:00:22.675Z,10.50
2018-04-24T06:02:50.753Z,12.27
2018-04-24T06:05:22.326Z,9.27
2018-04-24T06:07:50.104Z,8.13
2018-04-24T06:10:19.255Z,10.33
2018-04-24T06:12:46.954Z,7.87
2018-04-24T06:15:15.420Z,10.57
2018-04-24T06:17:43.641Z,6.70
2018-04-24T06:20:12.084Z,8.87
2018-04-24T06:22:39.976Z,10.90
2018-04-24T06:25:09.367Z,9.57
2018-04-24T06:27:37.487Z,9.30
2018-04-24T06:30:06.240Z,7.63
2018-04-24T06:32:34.761Z,11.40
2018-04-24T06:35:09.683Z,6.57
2018-04-24T06:37:37.430Z,11.83
2018-04-24T06:40:29.914Z,8.50
2018-04-24T06:42:58.135Z,9.20
2018-04-24T06:45:30.914Z,12.50
2018-04-24T06:47:58.973Z,8.70
2018-04-24T06:50:32.432Z,9.97
2018-04-24T06:53:01.022Z,9.10
2018-04-24T06:58:41.312Z,8.13
2018-04-24T07:01:09.058Z,10.27
2018-04-24T07:03:39.160Z,8.33
2018-04-24T07:06:08.595Z,9.57
2018-04-24T07:08:42.998Z,8.80
2018-04-24T07:11:10.736Z,8.53
2018-04-24T07:13:39.429Z,12.97
2018-04-24T07:16:07.178Z,12.03
2018-04-24T07:18:35.651Z,10.17
2018-04-24T07:21:04.061Z,10.23
2018-04-24T07:23:52.415Z,16.10
2018-04-24T07:26:20.548Z,9.17
2018-04-24T07:28:52.692Z,9.27
2018-04-24T07:31:20.763Z,10.80
2018-04-24T07:33:55.796Z,11.27
2018-04-24T07:36:24.293Z,8.70
2018-04-24T07:38:52.932Z,12.00
2018-04-24T07:41:20.587Z,10.83
2018-04-24T07:43:50.356Z,9.60
2018-04-24T07:46:19.157Z,13.90
2018-04-24T07:48:49.251Z,13.17
2018-04-24T07:51:16.969Z,11.97
2018-04-24T07:53:44.636Z,9.40
2018-04-24T07:56:12.346Z,9.13
2018-04-24T07:58:45.845Z,9.47
2018-04-24T08:01:13.898Z,11.07
2018-04-24T08:04:02.358Z,14.87
2018-04-24T08:06:30.063Z,11.17
2018-04-24T08:09:03.712Z,9.73
2018-04-24T08:11:32.236Z,11.07
2018-04-24T08:14:14.076Z,12.27
2018-04-24T08:16:41.836Z,10.40
2018-04-24T08:19:12.064Z,11.60
2018-04-24T08:21:40.485Z,9.33
2018-04-24T08:24:12.970Z,10.37
2018-04-24T08:26:40.654Z,11.97
2018-04-24T08:29:14.891Z,9.90
2018-04-24T08:31:43.289Z,15.37
2018-04-24T08:34:23.876Z,14.60
2018-04-24T08:36:51.596Z,10.37
2018-04-24T08:39:33.332Z,14.93
2018-04-24T08:42:00.993Z,14.83
2018-04-24T08:47:29.525Z,16.03
2018-04-24T08:49:57.593Z,15.10
2018-04-24T08:52:33.697Z,15.70
2018-04-24T08:55:02.116Z,15.50
2018-04-24T08:57:40.577Z,10.13
2018-04-24T09:00:09.826Z,16.30
2018-04-24T09:02:48.386Z,16.40
2018-04-24T09:05:17.644Z,14.67
2018-04-24T09:08:00.231Z,13.37
2018-04-24T09:10:27.941Z,13.23
2018-04-24T09:15:51.750Z,13.73
2018-04-24T09:18:19.528Z,14.83
2018-04-24T09:23:58.871Z,21.00
2018-04-24T09:26:27.239Z,19.37
2018-04-24T09:29:06.899Z,15.97
2018-04-24T09:31:40.924Z,14.27
2018-04-24T09:34:10.588Z,17.17
2018-04-24T09:36:38.304Z,16.40
2018-04-24T09:39:25.740Z,17.63
2018-04-24T09:41:54.193Z,17.40
2018-04-24T09:44:24.580Z,20.33
2018-04-24T09:46:52.256Z,22.17
2018-04-24T09:49:23.559Z,20.27
2018-04-24T09:51:52.070Z,19.03
2018-04-24T09:54:32.049Z,22.03
2018-04-24T09:57:00.548Z,19.20
2018-04-24T09:59:30.049Z,17.03
2018-04-24T10:01:58.539Z,24.30
2018-04-24T10:04:26.734Z,19.87
2018-04-24T10:06:54.441Z,20.87
2018-04-24T10:09:30.885Z,19.43
2018-04-24T10:11:58.594Z,23.67
2018-04-24T10:14:28.100Z,25.07
2018-04-24T10:16:56.564Z,20.50
2018-04-24T10:19:39.985Z,24.63
2018-04-24T10:22:08.424Z,22.93
2018-04-24T10:24:44.717Z,22.17
2018-04-24T10:27:13.136Z,25.50
2018-04-24T10:29:50.335Z,25.80
2018-04-24T10:32:17.983Z,22.53
2018-04-24T10:34:47.449Z,24.00
2018-04-24T10:37:22.997Z,22.13
2018-04-24T10:39:51.474Z,26.57
2018-04-24T10:42:21.636Z,29.90
2018-04-24T10:44:50.162Z,25.07
2018-04-24T10:47:17.860Z,22.73
2018-04-24T10:49:45.550Z,25.43
2018-04-24T10:52:27.039Z,23.33
2018-04-24T10:54:55.500Z,23.83
2018-04-24T10:57:37.593Z,20.73
2018-04-24T11:00:06.059Z,24.97
2018-04-24T11:02:37.557Z,21.57
2018-04-24T11:05:06.683Z,27.63
2018-04-24T11:10:29.356Z,24.13
2018-04-24T11:12:57.437Z,24.70
2018-04-24T11:15:32.788Z,29.40
2018-04-24T11:18:00.833Z,25.43
2018-04-24T11:20:34.309Z,22.30
2018-04-24T11:23:02.068Z,25.73
2018-04-24T11:25:30.153Z,24.73
2018-04-24T11:27:57.864Z,30.40
2018-04-24T11:30:28.002Z,25.80
2018-04-24T11:32:56.446Z,24.57
2018-04-24T11:35:31.007Z,28.07
2018-04-24T11:37:59.477Z,26.83
2018-04-24T11:40:29.283Z,26.20
2018-04-24T11:42:58.687Z,28.07
2018-04-24T11:45:28.681Z,27.80
2018-04-24T11:47:56.386Z,28.97
2018-04-24T11:50:24.115Z,30.57
2018-04-24T11:52:52.074Z,30.60
2018-04-24T11:55:33.606Z,31.57
2018-04-24T11:58:01.332Z,32.10
2018-04-24T12:00:31.072Z,33.53
2018-04-24T12:02:59.707Z,32.83
2018-04-24T12:05:36.208Z,30.40
2018-04-24T12:08:05.744Z,34.10
2018-04-24T12:10:48.422Z,31.63
2018-04-24T12:13:16.864Z,31.47
2018-04-24T12:16:03.476Z,35.57
2018-04-24T12:18:31.206Z,34.97
2018-04-24T12:20:58.902Z,34.13
2018-04-24T12:23:27.043Z,31.13
2018-04-24T12:26:08.489Z,27.67
2018-04-24T12:28:36.926Z,28.20
2018-04-24T12:31:11.601Z,29.10
2018-04-24T12:33:40.154Z,26.87
2018-04-24T12:36:10.257Z,31.20
2018-04-24T12:38:37.988Z,24.67
2018-04-24T12:41:09.791Z,29.27
2018-04-24T12:43:37.463Z,28.63
2018-04-24T12:46:24.366Z,27.77
2018-04-24T12:48:52.434Z,27.63
2018-04-24T12:51:39.648Z,29.23
2018-04-24T12:54:07.311Z,24.33
2018-04-24T12:56:45.273Z,28.17
2018-04-24T12:59:13.423Z,24.50
2018-04-24T13:01:45.262Z,20.93
2018-04-24T13:04:13.003Z,22.93
2018-04-24T13:06:41.697Z,23.87
2018-04-24T13:09:09.441Z,23.93
2018-04-24T13:11:43.099Z,22.67
2018-04-24T13:14:10.779Z,22.53
2018-04-24T13:16:42.414Z,23.00
2018-04-24T13:19:10.149Z,20.63
2018-04-24T13:21:39.868Z,20.60
2018-04-24T13:24:07.552Z,20.47
2018-04-24T13:26:42.170Z,23.77
2018-04-24T13:29:10.256Z,18.67
2018-04-24T13:31:39.766Z,21.73
2018-04-24T13:34:08.276Z,26.40
2018-04-24T13:36:40.978Z,19.90
2018-04-24T13:39:08.637Z,22.23
2018-04-24T13:41:42.936Z,21.83
2018-04-24T13:44:10.598Z,23.37
2018-04-24T13:46:44.931Z,24.47
2018-04-24T13:49:12.615Z,27.60
2018-04-24T13:51:55.031Z,23.63
2018-04-24T13:54:23.514Z,25.23
2018-04-24T13:56:56.897Z,24.63
2018-04-24T13:59:24.563Z,24.20
2018-04-24T14:01:58.487Z,24.20
2018-04-24T14:04:26.134Z,19.13
2018-04-24T14:07:06.944Z,19.50
2018-04-24T14:09:34.639Z,18.03
2018-04-24T14:12:06.236Z,16.60
2018-04-24T14:14:34.828Z,18.03
2018-04-24T14:17:10.528Z,20.83
2018-04-24T14:19:38.264Z,15.93
2018-04-24T14:22:06.018Z,16.07
2018-04-24T14:24:34.088Z,17.23
2018-04-24T14:27:01.850Z,15.07
2018-04-24T14:29:29.566Z,13.70
2018-04-24T14:31:58.050Z,21.80
2018-04-24T14:34:26.574Z,14.03
2018-04-24T14:36:57.121Z,17.43
2018-04-24T14:39:26.364Z,13.57
2018-04-24T14:41:55.106Z,14.00
2018-04-24T14:44:23.577Z,13.53
2018-04-24T14:46:52.262Z,16.17
2018-04-24T14:49:19.905Z,14.63
2018-04-24T14:51:51.017Z,25.40
2018-04-24T14:54:19.472Z,25.57
2018-04-24T14:56:48.996Z,26.60
2018-04-24T14:59:16.701Z,32.07
2018-04-24T15:01:49.166Z,28.50
2018-04-24T15:04:17.681Z,31.30
2018-04-24T15:06:51.463Z,32.13
2018-04-24T15:09:19.973Z,32.50
2018-04-24T15:11:56.872Z,31.83
2018-04-24T15:14:24.935Z,28.90
2018-04-24T15:16:53.663Z,33.63
2018-04-24T15:19:21.760Z,30.80
2018-04-24T15:21:53.468Z,30.60
2018-04-24T15:24:21.183Z,32.70
2018-04-24T15:26:50.209Z,34.43
2018-04-24T15:29:17.912Z,32.50
2018-04-24T15:31:47.587Z,32.23
2018-04-24T15:34:15.291Z,34.03
2018-04-24T15:36:54.148Z,31.27
2018-04-24T15:39:22.569Z,33.13
2018-04-24T15:41:51.785Z,31.83
2018-04-24T15:44:20.998Z,34.67
2018-04-24T15:47:13.594Z,36.13
2018-04-24T15:49:41.303Z,34.20
2018-04-24T15:52:09.927Z,38.17
2018-04-24T15:54:37.620Z,30.83
2018-04-24T15:57:06.852Z,30.23
2018-04-24T15:59:35.392Z,30.90
2018-04-24T16:02:04.636Z,35.50
2018-04-24T16:04:33.054Z,29.17
2018-04-24T16:07:04.613Z,30.30
2018-04-24T16:09:32.324Z,25.93
2018-04-24T16:12:02.469Z,24.03
2018-04-24T16:14:30.173Z,26.67
2018-04-24T16:17:22.844Z,25.90
2018-04-24T16:19:51.313Z,28.57
2018-04-24T16:22:23.636Z,31.63
2018-04-24T16:24:52.072Z,24.80
2018-04-24T16:27:33.568Z,24.80
2018-04-24T16:30:02.040Z,24.53
2018-04-24T16:32:34.500Z,22.90
2018-04-24T16:35:02.199Z,24.20
2018-04-24T16:37:51.863Z,23.47
2018-04-24T16:40:19.582Z,25.37
2018-04-24T16:42:52.846Z,27.00
2018-04-24T16:45:20.998Z,23.97
2018-04-24T16:47:54.643Z,24.93
2018-04-24T16:50:22.394Z,26.63
2018-04-24T16:52:51.503Z,23.43
2018-04-24T16:55:19.253Z,19.87
2018-04-24T16:57:51.496Z,21.00
2018-04-24T17:00:19.188Z,23.37
2018-04-24T17:02:47.602Z,21.80
2018-04-24T17:05:15.355Z,23.37
2018-04-24T17:07:43.067Z,21.33
2018-04-24T17:10:10.721Z,22.10
2018-04-24T17:12:40.372Z,22.17
2018-04-24T17:15:08.452Z,23.80
2018-04-24T17:17:38.593Z,23.63
2018-04-24T17:20:07.570Z,21.87
2018-04-24T17:22:35.373Z,22.50
2018-04-24T17:25:03.345Z,22.27
2018-04-24T17:27:36.197Z,23.10
2018-04-24T17:30:03.996Z,23.30
2018-04-24T17:32:32.143Z,23.53
2018-04-24T17:34:59.836Z,25.83
2018-04-24T17:37:48.131Z,20.70
2018-04-24T17:40:16.170Z,22.07
2018-04-24T17:42:48.868Z,24.17
2018-04-24T17:45:16.520Z,23.50
2018-04-24T17:47:48.104Z,20.13
2018-04-24T17:50:15.828Z,20.63
2018-04-24T17:52:50.315Z,23.43
2018-04-24T17:55:19.556Z,20.10
2018-04-24T17:57:52.775Z,19.23
2018-04-24T18:00:20.595Z,21.40
2018-04-24T18:02:49.244Z,21.10
2018-04-24T18:05:16.962Z,21.17
2018-04-24T18:07:46.620Z,20.50
2018-04-24T18:10:15.481Z,19.00
2018-04-24T18:12:55.764Z,22.50
2018-04-24T18:15:25.482Z,18.33
2018-04-24T18:17:53.777Z,22.10
2018-04-24T18:20:21.527Z,18.87
2018-04-24T18:23:00.514Z,21.37
2018-04-24T18:25:29.027Z,21.97
2018-04-24T18:27:57.511Z,20.80
2018-04-24T18:30:25.609Z,20.43
2018-04-24T18:33:08.311Z,21.70
2018-04-24T18:35:35.984Z,24.50
2018-04-24T18:38:09.510Z,22.90
2018-04-24T18:40:37.623Z,23.43
2018-04-24T18:43:10.071Z,26.20
2018-04-24T18:45:37.804Z,21.57
2018-04-24T18:48:11.407Z,22.93
2018-04-24T18:50:39.126Z,25.23
2018-04-24T18:53:19.759Z,25.07
2018-04-24T18:55:47.817Z,22.23
2018-04-24T18:58:35.521Z,22.70
2018-04-24T19:01:03.182Z,22.97
2018-04-24T19:03:32.337Z,21.43
2018-04-24T19:06:00.481Z,20.60
2018-04-24T19:08:30.282Z,19.83
2018-04-24T19:10:59.232Z,24.10
2018-04-24T19:13:34.533Z,21.00
2018-04-24T19:16:02.308Z,21.40
2018-04-24T19:18:35.609Z,20.63
2018-04-24T19:21:04.853Z,22.37
2018-04-24T19:23:34.104Z,20.97
2018-04-24T19:26:03.749Z,21.90
2018-04-24T19:28:33.534Z,21.13
2018-04-24T19:31:08.027Z,21.03
2018-04-24T19:33:37.794Z,21.80
2018-04-24T19:36:08.184Z,20.60
2018-04-24T19:38:38.312Z,18.53
2018-04-24T19:46:59.146Z,17.70
2018-04-24T19:49:33.038Z,19.73
2018-04-24T19:52:01.456Z,21.73
2018-04-24T19:54:29.468Z,22.87
2018-04-24T19:56:57.960Z,22.33
2018-04-24T19:59:26.415Z,21.30
2018-04-24T20:01:54.517Z,18.90
2018-04-24T20:04:22.993Z,22.13
2018-04-24T20:06:51.448Z,18.83
2018-04-24T20:09:20.622Z,20.37
2018-04-24T20:11:48.316Z,17.67
2018-04-24T20:14:15.977Z,19.33
2018-04-24T20:16:43.654Z,19.40
2018-04-24T20:19:12.343Z,21.03
2018-04-24T20:21:40.381Z,20.70
2018-04-24T20:24:09.510Z,20.63
2018-04-24T20:26:38.001Z,24.33
2018-04-24T20:29:06.060Z,24.13
2018-04-24T20:31:34.477Z,27.17
2018-04-24T20:34:03.300Z,23.07
2018-04-24T20:36:32.621Z,24.10
2018-04-24T20:39:01.057Z,25.43
2018-04-24T20:41:28.770Z,26.00
2018-04-24T20:43:57.220Z,25.87
2018-04-24T20:46:25.244Z,23.43
2018-04-24T20:48:52.898Z,24.73
2018-04-24T20:51:21.315Z,24.47
2018-04-24T20:53:49.033Z,26.90
2018-04-24T20:56:17.475Z,25.90
2018-04-24T20:58:45.930Z,24.03
2018-04-24T21:01:14.023Z,27.33
2018-04-24T21:03:41.740Z,23.97
2018-04-24T21:06:09.493Z,23.37
2018-04-24T21:08:37.988Z,22.07
2018-04-24T21:11:05.998Z,27.27
2018-04-24T21:13:34.784Z,28.53
2018-04-24T21:16:02.462Z,28.27
2018-04-24T21:18:31.647Z,25.57
2018-04-24T21:20:59.762Z,22.93
2018-04-24T21:23:27.334Z,24.40
2018-04-24T21:25:56.563Z,26.03
2018-04-24T21:28:24.639Z,25.87
2018-04-24T21:30:53.108Z,26.83
2018-04-24T21:33:21.913Z,26.70
2018-04-24T21:35:49.953Z,27.13
2018-04-24T21:38:17.571Z,26.03
2018-04-24T21:40:45.954Z,28.60
2018-04-24T21:43:14.791Z,27.37
2018-04-24T21:45:42.914Z,27.53
2018-04-24T21:48:10.541Z,36.83
2018-04-24T21:50:38.954Z,31.27
2018-04-24T21:53:06.654Z,32.87
2018-04-24T21:55:35.093Z,27.40
2018-04-24T21:58:02.807Z,31.63
2018-04-24T22:00:30.438Z,31.87
2018-04-24T22:02:58.853Z,33.17
2018-04-24T22:05:26.562Z,32.63
2018-04-24T22:30:49.587Z,35.87
2018-04-24T22:33:18.046Z,37.27
2018-04-24T22:35:47.279Z,31.30
2018-04-24T22:38:15.663Z,36.20
2018-04-24T22:40:43.328Z,38.50
2018-04-24T23:03:10.824Z,44.87
2018-04-24T23:05:39.262Z,42.63
2018-04-24T23:08:07.775Z,43.37
2018-04-24T23:10:48.027Z,43.93
2018-04-24T23:13:28.174Z,38.73
2018-04-24T23:16:10.071Z,40.10
2018-04-24T23:18:50.413Z,41.47
2018-04-24T23:21:19.060Z,41.57
2018-04-24T23:23:46.779Z,44.30
2018-04-24T23:26:14.919Z,46.03
2018-04-24T23:28:42.684Z,40.70
2018-04-24T23:31:10.727Z,42.63
2018-04-24T23:33:39.196Z,46.37
2018-04-24T23:36:06.909Z,40.07
2018-04-24T23:38:34.999Z,39.50
2018-04-24T23:41:02.653Z,40.30
2018-04-24T23:43:31.519Z,37.03
2018-04-24T23:45:59.209Z,36.73
2018-04-24T23:48:27.709Z,41.97
2018-04-24T23:50:55.420Z,37.53
2018-04-24T23:53:23.506Z,37.83
2018-04-24T23:55:51.600Z,39.70
2018-04-24T23:58:19.277Z,42.37
